sensor_id;sensor_type;location;lat;lon;timestamp;P1;durP1;ratioP1;P2;durP2;ratioP2
28988;SDS011;16089;59.952;10.818;2022-11-09T00:00:01;45.85;;;15.80;;
28988;SDS011;16089;59.952;10.818;2022-11-09T00:02:27;39.80;;;14.25;;
28988;SDS011;16089;59.952;10.818;2022-11-09T00:04:53;43.25;;;15.85;;
28988;SDS011;16089;59.952;10.818;2022-11-09T00:07:20;34.85;;;12.85;;
28988;SDS011;16089;59.952;10.818;2022-11-09T00:09:47;33.03;;;12.85;;
28988;SDS011;16089;59.952;10.818;2022-11-09T00:12:14;33.20;;;11.00;;
28988;SDS011;16089;59.952;10.818;2022-11-09T00:14:40;42.22;;;10.95;;
28988;SDS011;16089;59.952;10.818;2022-11-09T00:17:07;29.85;;;9.90;;
28988;SDS011;16089;59.952;10.818;2022-11-09T00:19:33;34.33;;;11.27;;
28988;SDS011;16089;59.952;10.818;2022-11-09T00:21:59;35.08;;;10.60;;
28988;SDS011;16089;59.952;10.818;2022-11-09T00:24:26;38.53;;;12.45;;
28988;SDS011;16089;59.952;10.818;2022-11-09T00:26:53;43.45;;;13.10;;
28988;SDS011;16089;59.952;10.818;2022-11-09T00:29:20;35.47;;;10.50;;
28988;SDS011;16089;59.952;10.818;2022-11-09T00:31:46;33.92;;;13.20;;
28988;SDS011;16089;59.952;10.818;2022-11-09T00:34:13;39.22;;;13.02;;
28988;SDS011;16089;59.952;10.818;2022-11-09T00:36:40;41.25;;;14.27;;
28988;SDS011;16089;59.952;10.818;2022-11-09T00:39:07;36.85;;;13.07;;
28988;SDS011;16089;59.952;10.818;2022-11-09T00:41:33;45.40;;;15.27;;
28988;SDS011;16089;59.952;10.818;2022-11-09T00:44:01;42.83;;;14.85;;
28988;SDS011;16089;59.952;10.818;2022-11-09T00:46:27;37.75;;;14.07;;
28988;SDS011;16089;59.952;10.818;2022-11-09T00:48:54;45.38;;;16.02;;
28988;SDS011;16089;59.952;10.818;2022-11-09T00:51:20;38.95;;;14.48;;
28988;SDS011;16089;59.952;10.818;2022-11-09T00:53:47;35.85;;;12.75;;
28988;SDS011;16089;59.952;10.818;2022-11-09T00:56:17;34.13;;;11.75;;
28988;SDS011;16089;59.952;10.818;2022-11-09T00:58:44;34.08;;;9.52;;
28988;SDS011;16089;59.952;10.818;2022-11-09T01:01:12;27.55;;;9.65;;
28988;SDS011;16089;59.952;10.818;2022-11-09T01:03:38;34.00;;;11.38;;
28988;SDS011;16089;59.952;10.818;2022-11-09T01:06:05;28.83;;;10.73;;
28988;SDS011;16089;59.952;10.818;2022-11-09T01:08:32;42.97;;;14.05;;
28988;SDS011;16089;59.952;10.818;2022-11-09T01:11:03;38.13;;;14.60;;
28988;SDS011;16089;59.952;10.818;2022-11-09T01:13:29;34.38;;;13.98;;
28988;SDS011;16089;59.952;10.818;2022-11-09T01:15:56;35.33;;;12.73;;
28988;SDS011;16089;59.952;10.818;2022-11-09T01:18:24;41.60;;;14.55;;
28988;SDS011;16089;59.952;10.818;2022-11-09T01:20:50;41.05;;;14.30;;
28988;SDS011;16089;59.952;10.818;2022-11-09T01:23:17;39.88;;;14.23;;
28988;SDS011;16089;59.952;10.818;2022-11-09T01:25:43;38.78;;;13.93;;
28988;SDS011;16089;59.952;10.818;2022-11-09T01:28:10;36.35;;;13.23;;
28988;SDS011;16089;59.952;10.818;2022-11-09T01:30:37;38.63;;;13.52;;
28988;SDS011;16089;59.952;10.818;2022-11-09T01:33:04;37.80;;;12.10;;
28988;SDS011;16089;59.952;10.818;2022-11-09T01:35:32;35.85;;;12.35;;
28988;SDS011;16089;59.952;10.818;2022-11-09T01:37:59;39.05;;;12.45;;
28988;SDS011;16089;59.952;10.818;2022-11-09T01:40:25;43.67;;;11.55;;
28988;SDS011;16089;59.952;10.818;2022-11-09T01:42:52;35.72;;;13.15;;
28988;SDS011;16089;59.952;10.818;2022-11-09T01:45:25;43.88;;;14.48;;
28988;SDS011;16089;59.952;10.818;2022-11-09T01:47:53;32.83;;;11.27;;
28988;SDS011;16089;59.952;10.818;2022-11-09T01:50:24;35.97;;;12.85;;
28988;SDS011;16089;59.952;10.818;2022-11-09T01:52:54;39.92;;;12.30;;
28988;SDS011;16089;59.952;10.818;2022-11-09T01:55:20;30.00;;;8.40;;
28988;SDS011;16089;59.952;10.818;2022-11-09T01:57:48;31.23;;;9.10;;
28988;SDS011;16089;59.952;10.818;2022-11-09T02:00:17;31.13;;;9.60;;
28988;SDS011;16089;59.952;10.818;2022-11-09T02:02:45;28.52;;;9.90;;
28988;SDS011;16089;59.952;10.818;2022-11-09T02:05:13;41.85;;;11.23;;
28988;SDS011;16089;59.952;10.818;2022-11-09T02:07:40;38.25;;;9.70;;
28988;SDS011;16089;59.952;10.818;2022-11-09T02:10:10;29.63;;;9.48;;
28988;SDS011;16089;59.952;10.818;2022-11-09T02:12:39;32.72;;;10.07;;
28988;SDS011;16089;59.952;10.818;2022-11-09T02:15:06;26.65;;;7.30;;
28988;SDS011;16089;59.952;10.818;2022-11-09T02:17:34;27.67;;;8.10;;
28988;SDS011;16089;59.952;10.818;2022-11-09T02:20:00;25.27;;;7.88;;
28988;SDS011;16089;59.952;10.818;2022-11-09T02:22:29;31.05;;;9.45;;
28988;SDS011;16089;59.952;10.818;2022-11-09T02:24:55;34.95;;;8.82;;
28988;SDS011;16089;59.952;10.818;2022-11-09T02:27:21;31.80;;;7.18;;
28988;SDS011;16089;59.952;10.818;2022-11-09T02:29:48;32.42;;;8.98;;
28988;SDS011;16089;59.952;10.818;2022-11-09T02:32:16;23.67;;;8.00;;
28988;SDS011;16089;59.952;10.818;2022-11-09T02:34:44;31.52;;;8.13;;
28988;SDS011;16089;59.952;10.818;2022-11-09T02:37:10;30.90;;;8.07;;
28988;SDS011;16089;59.952;10.818;2022-11-09T02:39:38;29.42;;;8.23;;
28988;SDS011;16089;59.952;10.818;2022-11-09T02:42:05;35.50;;;8.30;;
28988;SDS011;16089;59.952;10.818;2022-11-09T02:44:33;28.52;;;8.48;;
28988;SDS011;16089;59.952;10.818;2022-11-09T02:47:00;31.40;;;8.98;;
28988;SDS011;16089;59.952;10.818;2022-11-09T02:49:27;22.48;;;7.45;;
28988;SDS011;16089;59.952;10.818;2022-11-09T02:51:53;29.00;;;8.40;;
28988;SDS011;16089;59.952;10.818;2022-11-09T02:54:19;44.88;;;8.75;;
28988;SDS011;16089;59.952;10.818;2022-11-09T02:56:47;34.40;;;8.80;;
28988;SDS011;16089;59.952;10.818;2022-11-09T02:59:13;31.55;;;9.40;;
28988;SDS011;16089;59.952;10.818;2022-11-09T03:01:40;26.77;;;8.95;;
28988;SDS011;16089;59.952;10.818;2022-11-09T03:04:06;35.13;;;8.90;;
28988;SDS011;16089;59.952;10.818;2022-11-09T03:06:32;36.08;;;10.40;;
28988;SDS011;16089;59.952;10.818;2022-11-09T03:08:59;30.38;;;9.90;;
28988;SDS011;16089;59.952;10.818;2022-11-09T03:11:26;41.33;;;10.88;;
28988;SDS011;16089;59.952;10.818;2022-11-09T03:13:54;30.60;;;10.15;;
28988;SDS011;16089;59.952;10.818;2022-11-09T03:16:20;30.60;;;9.98;;
28988;SDS011;16089;59.952;10.818;2022-11-09T03:18:47;31.75;;;10.43;;
28988;SDS011;16089;59.952;10.818;2022-11-09T03:21:13;28.67;;;9.18;;
28988;SDS011;16089;59.952;10.818;2022-11-09T03:23:39;35.25;;;11.02;;
28988;SDS011;16089;59.952;10.818;2022-11-09T03:26:06;30.58;;;10.20;;
28988;SDS011;16089;59.952;10.818;2022-11-09T03:28:32;30.80;;;9.55;;
28988;SDS011;16089;59.952;10.818;2022-11-09T03:31:00;33.78;;;10.73;;
28988;SDS011;16089;59.952;10.818;2022-11-09T03:33:26;32.53;;;9.93;;
28988;SDS011;16089;59.952;10.818;2022-11-09T03:35:53;36.03;;;10.30;;
28988;SDS011;16089;59.952;10.818;2022-11-09T03:38:19;37.05;;;11.32;;
28988;SDS011;16089;59.952;10.818;2022-11-09T03:40:45;43.45;;;13.00;;
28988;SDS011;16089;59.952;10.818;2022-11-09T03:43:12;35.55;;;12.00;;
28988;SDS011;16089;59.952;10.818;2022-11-09T03:45:38;49.15;;;13.93;;
28988;SDS011;16089;59.952;10.818;2022-11-09T03:48:06;41.78;;;14.40;;
28988;SDS011;16089;59.952;10.818;2022-11-09T03:50:32;47.00;;;13.60;;
28988;SDS011;16089;59.952;10.818;2022-11-09T03:52:59;53.28;;;14.70;;
28988;SDS011;16089;59.952;10.818;2022-11-09T03:55:26;51.72;;;14.82;;
28988;SDS011;16089;59.952;10.818;2022-11-09T03:57:53;35.08;;;12.40;;
28988;SDS011;16089;59.952;10.818;2022-11-09T04:00:20;41.65;;;13.35;;
28988;SDS011;16089;59.952;10.818;2022-11-09T04:02:47;44.53;;;13.63;;
28988;SDS011;16089;59.952;10.818;2022-11-09T04:05:14;49.40;;;13.63;;
28988;SDS011;16089;59.952;10.818;2022-11-09T04:07:45;46.03;;;14.38;;
28988;SDS011;16089;59.952;10.818;2022-11-09T04:10:11;31.60;;;11.90;;
28988;SDS011;16089;59.952;10.818;2022-11-09T04:12:38;62.78;;;13.88;;
28988;SDS011;16089;59.952;10.818;2022-11-09T04:15:04;60.47;;;13.75;;
28988;SDS011;16089;59.952;10.818;2022-11-09T04:17:31;42.30;;;11.45;;
28988;SDS011;16089;59.952;10.818;2022-11-09T04:19:57;41.67;;;11.45;;
28988;SDS011;16089;59.952;10.818;2022-11-09T04:22:25;45.13;;;11.30;;
28988;SDS011;16089;59.952;10.818;2022-11-09T04:24:51;28.80;;;9.98;;
28988;SDS011;16089;59.952;10.818;2022-11-09T04:27:18;42.63;;;10.18;;
28988;SDS011;16089;59.952;10.818;2022-11-09T04:29:44;53.08;;;9.52;;
28988;SDS011;16089;59.952;10.818;2022-11-09T04:32:10;48.53;;;9.88;;
28988;SDS011;16089;59.952;10.818;2022-11-09T04:34:37;42.47;;;9.32;;
28988;SDS011;16089;59.952;10.818;2022-11-09T04:37:05;46.92;;;8.68;;
28988;SDS011;16089;59.952;10.818;2022-11-09T04:39:33;45.35;;;8.02;;
28988;SDS011;16089;59.952;10.818;2022-11-09T04:41:59;42.83;;;7.70;;
28988;SDS011;16089;59.952;10.818;2022-11-09T04:44:25;40.90;;;8.68;;
28988;SDS011;16089;59.952;10.818;2022-11-09T04:46:53;49.38;;;8.60;;
28988;SDS011;16089;59.952;10.818;2022-11-09T04:49:19;42.13;;;9.95;;
28988;SDS011;16089;59.952;10.818;2022-11-09T04:51:46;48.00;;;8.60;;
28988;SDS011;16089;59.952;10.818;2022-11-09T04:54:12;38.58;;;9.82;;
28988;SDS011;16089;59.952;10.818;2022-11-09T04:56:40;28.25;;;7.82;;
28988;SDS011;16089;59.952;10.818;2022-11-09T04:59:07;33.50;;;6.57;;
28988;SDS011;16089;59.952;10.818;2022-11-09T05:01:33;21.77;;;5.30;;
28988;SDS011;16089;59.952;10.818;2022-11-09T05:03:59;16.60;;;4.43;;
28988;SDS011;16089;59.952;10.818;2022-11-09T05:06:26;17.48;;;4.55;;
28988;SDS011;16089;59.952;10.818;2022-11-09T05:08:58;14.25;;;4.00;;
28988;SDS011;16089;59.952;10.818;2022-11-09T05:11:25;15.35;;;4.65;;
28988;SDS011;16089;59.952;10.818;2022-11-09T05:13:53;14.48;;;4.72;;
28988;SDS011;16089;59.952;10.818;2022-11-09T05:16:19;18.00;;;5.50;;
28988;SDS011;16089;59.952;10.818;2022-11-09T05:18:47;15.18;;;5.00;;
28988;SDS011;16089;59.952;10.818;2022-11-09T05:21:13;15.07;;;4.93;;
28988;SDS011;16089;59.952;10.818;2022-11-09T05:23:40;15.20;;;6.32;;
28988;SDS011;16089;59.952;10.818;2022-11-09T05:26:24;11.68;;;4.60;;
28988;SDS011;16089;59.952;10.818;2022-11-09T05:28:50;14.80;;;5.20;;
28988;SDS011;16089;59.952;10.818;2022-11-09T05:31:19;13.68;;;4.40;;
28988;SDS011;16089;59.952;10.818;2022-11-09T05:33:46;10.50;;;4.30;;
28988;SDS011;16089;59.952;10.818;2022-11-09T05:36:13;14.20;;;4.25;;
28988;SDS011;16089;59.952;10.818;2022-11-09T05:38:39;7.35;;;2.40;;
28988;SDS011;16089;59.952;10.818;2022-11-09T05:41:06;12.90;;;3.08;;
28988;SDS011;16089;59.952;10.818;2022-11-09T05:43:32;10.90;;;2.85;;
28988;SDS011;16089;59.952;10.818;2022-11-09T05:45:58;8.75;;;2.63;;
28988;SDS011;16089;59.952;10.818;2022-11-09T05:48:26;8.50;;;2.47;;
28988;SDS011;16089;59.952;10.818;2022-11-09T05:50:52;6.65;;;2.05;;
28988;SDS011;16089;59.952;10.818;2022-11-09T05:53:19;8.27;;;1.80;;
28988;SDS011;16089;59.952;10.818;2022-11-09T05:55:45;6.45;;;1.52;;
28988;SDS011;16089;59.952;10.818;2022-11-09T05:58:11;7.72;;;1.50;;
28988;SDS011;16089;59.952;10.818;2022-11-09T06:00:38;6.05;;;1.58;;
28988;SDS011;16089;59.952;10.818;2022-11-09T06:03:05;4.97;;;1.45;;
28988;SDS011;16089;59.952;10.818;2022-11-09T06:05:33;10.35;;;2.47;;
28988;SDS011;16089;59.952;10.818;2022-11-09T06:08:00;7.68;;;1.95;;
28988;SDS011;16089;59.952;10.818;2022-11-09T06:10:27;5.25;;;1.60;;
28988;SDS011;16089;59.952;10.818;2022-11-09T06:12:53;7.43;;;1.60;;
28988;SDS011;16089;59.952;10.818;2022-11-09T06:15:19;8.52;;;1.90;;
28988;SDS011;16089;59.952;10.818;2022-11-09T06:17:49;9.98;;;1.90;;
28988;SDS011;16089;59.952;10.818;2022-11-09T06:20:16;6.97;;;1.60;;
28988;SDS011;16089;59.952;10.818;2022-11-09T06:22:43;9.35;;;1.70;;
28988;SDS011;16089;59.952;10.818;2022-11-09T06:25:10;12.02;;;6.38;;
28988;SDS011;16089;59.952;10.818;2022-11-09T06:27:36;8.85;;;3.85;;
28988;SDS011;16089;59.952;10.818;2022-11-09T06:30:03;8.00;;;2.50;;
28988;SDS011;16089;59.952;10.818;2022-11-09T06:32:29;10.05;;;2.70;;
28988;SDS011;16089;59.952;10.818;2022-11-09T06:34:55;10.80;;;2.13;;
28988;SDS011;16089;59.952;10.818;2022-11-09T06:37:22;8.80;;;2.67;;
28988;SDS011;16089;59.952;10.818;2022-11-09T06:39:50;5.85;;;2.78;;
28988;SDS011;16089;59.952;10.818;2022-11-09T06:42:16;11.20;;;3.55;;
28988;SDS011;16089;59.952;10.818;2022-11-09T06:44:43;14.35;;;4.63;;
28988;SDS011;16089;59.952;10.818;2022-11-09T06:47:09;15.57;;;4.55;;
28988;SDS011;16089;59.952;10.818;2022-11-09T06:49:36;15.07;;;5.53;;
28988;SDS011;16089;59.952;10.818;2022-11-09T06:52:02;17.45;;;5.82;;
28988;SDS011;16089;59.952;10.818;2022-11-09T06:54:29;17.67;;;6.15;;
28988;SDS011;16089;59.952;10.818;2022-11-09T06:56:56;20.50;;;7.50;;
28988;SDS011;16089;59.952;10.818;2022-11-09T06:59:23;20.27;;;6.68;;
28988;SDS011;16089;59.952;10.818;2022-11-09T07:01:49;30.23;;;7.45;;
28988;SDS011;16089;59.952;10.818;2022-11-09T07:04:16;15.98;;;5.97;;
28988;SDS011;16089;59.952;10.818;2022-11-09T07:06:42;23.90;;;6.07;;
28988;SDS011;16089;59.952;10.818;2022-11-09T07:09:09;24.58;;;5.93;;
28988;SDS011;16089;59.952;10.818;2022-11-09T07:11:35;31.75;;;7.43;;
28988;SDS011;16089;59.952;10.818;2022-11-09T07:14:03;26.42;;;7.53;;
28988;SDS011;16089;59.952;10.818;2022-11-09T07:16:30;23.42;;;6.00;;
28988;SDS011;16089;59.952;10.818;2022-11-09T07:18:56;29.42;;;6.72;;
28988;SDS011;16089;59.952;10.818;2022-11-09T07:21:23;30.55;;;6.38;;
28988;SDS011;16089;59.952;10.818;2022-11-09T07:23:50;24.25;;;5.72;;
28988;SDS011;16089;59.952;10.818;2022-11-09T07:26:17;32.05;;;6.22;;
28988;SDS011;16089;59.952;10.818;2022-11-09T07:28:43;23.92;;;5.68;;
28988;SDS011;16089;59.952;10.818;2022-11-09T07:31:11;30.20;;;4.97;;
28988;SDS011;16089;59.952;10.818;2022-11-09T07:33:37;25.38;;;5.05;;
28988;SDS011;16089;59.952;10.818;2022-11-09T07:36:04;26.30;;;4.93;;
28988;SDS011;16089;59.952;10.818;2022-11-09T07:38:30;24.35;;;4.40;;
28988;SDS011;16089;59.952;10.818;2022-11-09T07:40:57;34.00;;;5.88;;
28988;SDS011;16089;59.952;10.818;2022-11-09T07:43:24;25.13;;;4.15;;
28988;SDS011;16089;59.952;10.818;2022-11-09T07:45:50;30.23;;;5.28;;
28988;SDS011;16089;59.952;10.818;2022-11-09T07:48:18;30.05;;;4.75;;
28988;SDS011;16089;59.952;10.818;2022-11-09T07:50:44;29.45;;;5.47;;
28988;SDS011;16089;59.952;10.818;2022-11-09T07:53:11;32.60;;;4.70;;
28988;SDS011;16089;59.952;10.818;2022-11-09T07:55:38;28.27;;;5.00;;
28988;SDS011;16089;59.952;10.818;2022-11-09T07:58:05;28.40;;;5.22;;
28988;SDS011;16089;59.952;10.818;2022-11-09T08:00:32;24.73;;;3.97;;
28988;SDS011;16089;59.952;10.818;2022-11-09T08:02:59;24.50;;;4.10;;
28988;SDS011;16089;59.952;10.818;2022-11-09T08:05:27;26.63;;;4.05;;
28988;SDS011;16089;59.952;10.818;2022-11-09T08:07:54;30.15;;;4.15;;
28988;SDS011;16089;59.952;10.818;2022-11-09T08:10:21;24.17;;;3.80;;
28988;SDS011;16089;59.952;10.818;2022-11-09T08:12:51;29.17;;;4.32;;
28988;SDS011;16089;59.952;10.818;2022-11-09T08:15:17;23.17;;;3.60;;
28988;SDS011;16089;59.952;10.818;2022-11-09T08:17:44;24.08;;;4.07;;
28988;SDS011;16089;59.952;10.818;2022-11-09T08:20:10;27.52;;;3.92;;
28988;SDS011;16089;59.952;10.818;2022-11-09T08:22:41;29.60;;;4.00;;
28988;SDS011;16089;59.952;10.818;2022-11-09T08:25:07;27.10;;;4.28;;
28988;SDS011;16089;59.952;10.818;2022-11-09T08:27:34;25.10;;;3.78;;
28988;SDS011;16089;59.952;10.818;2022-11-09T08:30:04;35.50;;;4.00;;
28988;SDS011;16089;59.952;10.818;2022-11-09T08:32:31;27.90;;;4.22;;
28988;SDS011;16089;59.952;10.818;2022-11-09T08:34:57;27.27;;;4.18;;
28988;SDS011;16089;59.952;10.818;2022-11-09T08:37:23;25.77;;;3.35;;
28988;SDS011;16089;59.952;10.818;2022-11-09T08:39:51;26.52;;;4.00;;
28988;SDS011;16089;59.952;10.818;2022-11-09T08:42:17;32.22;;;3.20;;
28988;SDS011;16089;59.952;10.818;2022-11-09T08:44:44;28.40;;;3.40;;
28988;SDS011;16089;59.952;10.818;2022-11-09T08:47:10;37.05;;;4.25;;
28988;SDS011;16089;59.952;10.818;2022-11-09T08:49:36;19.08;;;2.85;;
28988;SDS011;16089;59.952;10.818;2022-11-09T08:52:03;28.20;;;4.15;;
28988;SDS011;16089;59.952;10.818;2022-11-09T08:54:29;29.25;;;3.15;;
28988;SDS011;16089;59.952;10.818;2022-11-09T08:56:57;29.02;;;3.58;;
28988;SDS011;16089;59.952;10.818;2022-11-09T08:59:23;24.38;;;3.53;;
28988;SDS011;16089;59.952;10.818;2022-11-09T09:01:49;24.50;;;3.05;;
28988;SDS011;16089;59.952;10.818;2022-11-09T09:04:16;27.13;;;3.03;;
28988;SDS011;16089;59.952;10.818;2022-11-09T09:06:42;27.30;;;3.40;;
28988;SDS011;16089;59.952;10.818;2022-11-09T09:09:09;22.40;;;2.90;;
28988;SDS011;16089;59.952;10.818;2022-11-09T09:11:35;27.90;;;3.22;;
28988;SDS011;16089;59.952;10.818;2022-11-09T09:14:03;34.13;;;4.05;;
28988;SDS011;16089;59.952;10.818;2022-11-09T09:16:29;22.35;;;2.38;;
28988;SDS011;16089;59.952;10.818;2022-11-09T09:18:56;28.23;;;3.60;;
28988;SDS011;16089;59.952;10.818;2022-11-09T09:21:22;28.38;;;3.22;;
28988;SDS011;16089;59.952;10.818;2022-11-09T09:23:48;23.73;;;2.83;;
28988;SDS011;16089;59.952;10.818;2022-11-09T09:26:15;18.55;;;3.75;;
28988;SDS011;16089;59.952;10.818;2022-11-09T09:28:41;20.20;;;3.17;;
28988;SDS011;16089;59.952;10.818;2022-11-09T09:31:09;20.23;;;2.95;;
28988;SDS011;16089;59.952;10.818;2022-11-09T09:33:36;24.08;;;2.92;;
28988;SDS011;16089;59.952;10.818;2022-11-09T09:36:02;17.58;;;3.05;;
28988;SDS011;16089;59.952;10.818;2022-11-09T09:38:29;26.65;;;3.15;;
28988;SDS011;16089;59.952;10.818;2022-11-09T09:40:56;16.73;;;2.90;;
28988;SDS011;16089;59.952;10.818;2022-11-09T09:43:25;22.27;;;3.08;;
28988;SDS011;16089;59.952;10.818;2022-11-09T09:45:52;20.83;;;3.10;;
28988;SDS011;16089;59.952;10.818;2022-11-09T09:48:25;29.25;;;3.25;;
28988;SDS011;16089;59.952;10.818;2022-11-09T09:50:53;20.13;;;2.20;;
28988;SDS011;16089;59.952;10.818;2022-11-09T09:53:22;22.50;;;2.92;;
28988;SDS011;16089;59.952;10.818;2022-11-09T09:55:52;22.38;;;2.55;;
28988;SDS011;16089;59.952;10.818;2022-11-09T09:58:19;27.38;;;3.42;;
28988;SDS011;16089;59.952;10.818;2022-11-09T10:00:49;33.00;;;3.55;;
28988;SDS011;16089;59.952;10.818;2022-11-09T10:03:18;26.35;;;3.45;;
28988;SDS011;16089;59.952;10.818;2022-11-09T10:05:47;25.38;;;2.65;;
28988;SDS011;16089;59.952;10.818;2022-11-09T10:08:18;23.38;;;3.05;;
28988;SDS011;16089;59.952;10.818;2022-11-09T10:10:47;28.65;;;3.35;;
28988;SDS011;16089;59.952;10.818;2022-11-09T10:13:24;23.02;;;3.40;;
28988;SDS011;16089;59.952;10.818;2022-11-09T10:18:22;27.65;;;3.63;;
28988;SDS011;16089;59.952;10.818;2022-11-09T10:20:58;26.20;;;2.90;;
28988;SDS011;16089;59.952;10.818;2022-11-09T10:23:33;22.73;;;3.45;;
28988;SDS011;16089;59.952;10.818;2022-11-09T10:26:02;23.38;;;2.97;;
28988;SDS011;16089;59.952;10.818;2022-11-09T10:28:28;27.23;;;3.83;;
28988;SDS011;16089;59.952;10.818;2022-11-09T10:30:57;33.08;;;4.03;;
28988;SDS011;16089;59.952;10.818;2022-11-09T10:33:24;25.10;;;3.38;;
28988;SDS011;16089;59.952;10.818;2022-11-09T10:35:54;27.42;;;4.00;;
28988;SDS011;16089;59.952;10.818;2022-11-09T10:38:25;25.95;;;3.80;;
28988;SDS011;16089;59.952;10.818;2022-11-09T10:40:54;32.05;;;3.40;;
28988;SDS011;16089;59.952;10.818;2022-11-09T10:43:22;24.92;;;3.65;;
28988;SDS011;16089;59.952;10.818;2022-11-09T10:45:56;28.48;;;4.28;;
28988;SDS011;16089;59.952;10.818;2022-11-09T10:48:28;35.55;;;3.90;;
28988;SDS011;16089;59.952;10.818;2022-11-09T10:50:55;24.27;;;3.03;;
28988;SDS011;16089;59.952;10.818;2022-11-09T10:53:22;25.38;;;4.07;;
28988;SDS011;16089;59.952;10.818;2022-11-09T10:55:52;29.25;;;4.25;;
28988;SDS011;16089;59.952;10.818;2022-11-09T10:58:21;35.10;;;3.75;;
28988;SDS011;16089;59.952;10.818;2022-11-09T11:00:59;32.00;;;4.38;;
28988;SDS011;16089;59.952;10.818;2022-11-09T11:03:26;30.33;;;3.80;;
28988;SDS011;16089;59.952;10.818;2022-11-09T11:05:55;29.25;;;4.22;;
28988;SDS011;16089;59.952;10.818;2022-11-09T11:08:30;33.80;;;3.55;;
28988;SDS011;16089;59.952;10.818;2022-11-09T11:11:11;39.05;;;4.13;;
28988;SDS011;16089;59.952;10.818;2022-11-09T11:13:39;31.17;;;3.75;;
28988;SDS011;16089;59.952;10.818;2022-11-09T11:16:12;29.70;;;3.92;;
28988;SDS011;16089;59.952;10.818;2022-11-09T11:18:41;35.65;;;4.20;;
28988;SDS011;16089;59.952;10.818;2022-11-09T11:21:13;32.38;;;3.88;;
28988;SDS011;16089;59.952;10.818;2022-11-09T11:23:39;23.90;;;4.00;;
28988;SDS011;16089;59.952;10.818;2022-11-09T11:26:16;22.00;;;3.20;;
28988;SDS011;16089;59.952;10.818;2022-11-09T11:28:47;36.10;;;4.70;;
28988;SDS011;16089;59.952;10.818;2022-11-09T11:31:15;31.85;;;4.15;;
28988;SDS011;16089;59.952;10.818;2022-11-09T11:33:42;23.67;;;3.70;;
28988;SDS011;16089;59.952;10.818;2022-11-09T11:36:11;22.55;;;3.33;;
28988;SDS011;16089;59.952;10.818;2022-11-09T11:38:41;27.02;;;3.85;;
28988;SDS011;16089;59.952;10.818;2022-11-09T11:44:00;25.02;;;3.08;;
28988;SDS011;16089;59.952;10.818;2022-11-09T11:46:30;22.80;;;3.40;;
28988;SDS011;16089;59.952;10.818;2022-11-09T11:51:46;26.30;;;3.67;;
28988;SDS011;16089;59.952;10.818;2022-11-09T11:54:16;21.90;;;3.67;;
28988;SDS011;16089;59.952;10.818;2022-11-09T11:56:44;30.17;;;3.28;;
28988;SDS011;16089;59.952;10.818;2022-11-09T11:59:26;22.10;;;3.15;;
28988;SDS011;16089;59.952;10.818;2022-11-09T12:02:07;23.83;;;3.83;;
28988;SDS011;16089;59.952;10.818;2022-11-09T12:04:45;23.25;;;3.47;;
28988;SDS011;16089;59.952;10.818;2022-11-09T12:07:19;28.23;;;3.25;;
28988;SDS011;16089;59.952;10.818;2022-11-09T12:09:53;22.92;;;2.83;;
28988;SDS011;16089;59.952;10.818;2022-11-09T12:12:23;26.98;;;3.78;;
28988;SDS011;16089;59.952;10.818;2022-11-09T12:14:57;17.95;;;2.72;;
28988;SDS011;16089;59.952;10.818;2022-11-09T12:17:28;27.27;;;3.17;;
28988;SDS011;16089;59.952;10.818;2022-11-09T12:22:44;25.83;;;3.05;;
28988;SDS011;16089;59.952;10.818;2022-11-09T12:25:14;25.40;;;3.10;;
28988;SDS011;16089;59.952;10.818;2022-11-09T12:27:46;25.50;;;3.13;;
28988;SDS011;16089;59.952;10.818;2022-11-09T12:30:17;27.95;;;3.78;;
28988;SDS011;16089;59.952;10.818;2022-11-09T12:32:45;31.38;;;4.18;;
28988;SDS011;16089;59.952;10.818;2022-11-09T12:35:23;21.90;;;3.42;;
28988;SDS011;16089;59.952;10.818;2022-11-09T12:37:53;27.20;;;3.63;;
28988;SDS011;16089;59.952;10.818;2022-11-09T12:40:22;23.10;;;3.05;;
28988;SDS011;16089;59.952;10.818;2022-11-09T12:42:50;25.48;;;3.70;;
28988;SDS011;16089;59.952;10.818;2022-11-09T12:45:21;26.67;;;3.72;;
28988;SDS011;16089;59.952;10.818;2022-11-09T12:47:51;25.83;;;3.50;;
28988;SDS011;16089;59.952;10.818;2022-11-09T12:50:19;23.65;;;2.58;;
28988;SDS011;16089;59.952;10.818;2022-11-09T12:52:47;16.85;;;3.13;;
28988;SDS011;16089;59.952;10.818;2022-11-09T12:55:14;19.92;;;3.33;;
28988;SDS011;16089;59.952;10.818;2022-11-09T12:57:43;21.65;;;3.47;;
28988;SDS011;16089;59.952;10.818;2022-11-09T13:00:12;18.98;;;3.33;;
28988;SDS011;16089;59.952;10.818;2022-11-09T13:02:59;13.82;;;3.22;;
28988;SDS011;16089;59.952;10.818;2022-11-09T13:05:27;17.63;;;2.72;;
28988;SDS011;16089;59.952;10.818;2022-11-09T13:07:54;21.08;;;2.63;;
28988;SDS011;16089;59.952;10.818;2022-11-09T13:10:28;21.65;;;3.25;;
28988;SDS011;16089;59.952;10.818;2022-11-09T13:13:02;22.17;;;3.25;;
28988;SDS011;16089;59.952;10.818;2022-11-09T13:15:29;20.92;;;3.03;;
28988;SDS011;16089;59.952;10.818;2022-11-09T13:17:59;24.30;;;2.95;;
28988;SDS011;16089;59.952;10.818;2022-11-09T13:20:44;21.58;;;3.05;;
28988;SDS011;16089;59.952;10.818;2022-11-09T13:25:56;16.38;;;2.75;;
28988;SDS011;16089;59.952;10.818;2022-11-09T13:31:08;14.23;;;2.70;;
28988;SDS011;16089;59.952;10.818;2022-11-09T13:33:36;15.93;;;3.28;;
28988;SDS011;16089;59.952;10.818;2022-11-09T13:41:39;22.00;;;2.85;;
28988;SDS011;16089;59.952;10.818;2022-11-09T13:44:07;20.85;;;3.47;;
28988;SDS011;16089;59.952;10.818;2022-11-09T13:46:38;19.20;;;3.35;;
28988;SDS011;16089;59.952;10.818;2022-11-09T13:51:47;20.17;;;3.47;;
28988;SDS011;16089;59.952;10.818;2022-11-09T13:54:26;20.60;;;2.65;;
28988;SDS011;16089;59.952;10.818;2022-11-09T13:56:52;15.65;;;2.33;;
28988;SDS011;16089;59.952;10.818;2022-11-09T13:59:20;27.23;;;2.92;;
28988;SDS011;16089;59.952;10.818;2022-11-09T14:01:48;26.63;;;3.88;;
28988;SDS011;16089;59.952;10.818;2022-11-09T14:04:19;24.20;;;3.28;;
28988;SDS011;16089;59.952;10.818;2022-11-09T14:06:45;28.05;;;3.97;;
28988;SDS011;16089;59.952;10.818;2022-11-09T14:09:14;24.88;;;3.45;;
28988;SDS011;16089;59.952;10.818;2022-11-09T14:11:47;21.25;;;3.63;;
28988;SDS011;16089;59.952;10.818;2022-11-09T14:17:05;27.67;;;4.53;;
28988;SDS011;16089;59.952;10.818;2022-11-09T14:19:37;29.73;;;3.72;;
28988;SDS011;16089;59.952;10.818;2022-11-09T14:22:10;25.40;;;4.32;;
28988;SDS011;16089;59.952;10.818;2022-11-09T14:24:40;23.80;;;3.75;;
28988;SDS011;16089;59.952;10.818;2022-11-09T14:27:11;26.10;;;3.95;;
28988;SDS011;16089;59.952;10.818;2022-11-09T14:29:46;25.42;;;4.00;;
28988;SDS011;16089;59.952;10.818;2022-11-09T14:32:21;26.35;;;3.70;;
28988;SDS011;16089;59.952;10.818;2022-11-09T14:34:48;26.10;;;3.92;;
28988;SDS011;16089;59.952;10.818;2022-11-09T14:37:14;27.30;;;4.43;;
28988;SDS011;16089;59.952;10.818;2022-11-09T14:39:45;22.98;;;4.40;;
28988;SDS011;16089;59.952;10.818;2022-11-09T14:42:12;27.70;;;4.05;;
28988;SDS011;16089;59.952;10.818;2022-11-09T14:44:42;25.23;;;3.90;;
28988;SDS011;16089;59.952;10.818;2022-11-09T14:47:11;21.02;;;3.38;;
28988;SDS011;16089;59.952;10.818;2022-11-09T14:49:39;33.85;;;4.47;;